createdAt,value
2017-07-24T00:00:19.404Z,97
2017-07-24T00:01:21.463Z,97
2017-07-24T00:02:23.513Z,97
2017-07-24T00:03:25.556Z,97
2017-07-24T00:04:27.616Z,97
2017-07-24T00:05:30.005Z,97
2017-07-24T00:06:32.392Z,97
2017-07-24T00:07:34.448Z,97
2017-07-24T00:08:36.496Z,97
2017-07-24T00:09:38.545Z,97
2017-07-24T00:10:40.591Z,97
2017-07-24T00:11:43.308Z,97
2017-07-24T00:12:45.361Z,97
2017-07-24T00:13:47.420Z,97
2017-07-24T00:14:49.793Z,97
2017-07-24T00:15:51.847Z,97
2017-07-24T00:16:53.882Z,97
2017-07-24T00:17:55.932Z,97
2017-07-24T00:18:57.972Z,97
2017-07-24T00:20:00.023Z,97
2017-07-24T00:21:02.078Z,97
2017-07-24T00:22:04.133Z,97
2017-07-24T00:23:06.522Z,97
2017-07-24T00:24:08.582Z,97
2017-07-24T00:25:10.645Z,97
2017-07-24T00:26:12.714Z,97
2017-07-24T00:27:14.759Z,97
2017-07-24T00:28:16.816Z,97
2017-07-24T00:29:18.884Z,97
2017-07-24T00:30:20.924Z,97
2017-07-24T00:31:22.977Z,97
2017-07-24T00:32:25.027Z,97
2017-07-24T00:33:27.080Z,97
2017-07-24T00:34:29.125Z,97
2017-07-24T00:35:31.505Z,97
2017-07-24T00:36:33.560Z,97
2017-07-24T00:37:35.610Z,97
2017-07-24T00:38:37.657Z,97
2017-07-24T00:39:39.715Z,97
2017-07-24T00:40:42.124Z,97
2017-07-24T00:41:44.523Z,97
2017-07-24T00:42:46.908Z,97
2017-07-24T00:43:49.298Z,97
2017-07-24T00:44:51.347Z,97
2017-07-24T00:45:53.401Z,97
2017-07-24T00:46:55.784Z,97
2017-07-24T00:47:57.823Z,97
2017-07-24T00:48:59.883Z,97
2017-07-24T00:50:01.937Z,97
2017-07-24T00:51:04.996Z,97
2017-07-24T00:52:07.044Z,97
2017-07-24T00:53:09.431Z,97
2017-07-24T00:54:11.484Z,97
2017-07-24T00:55:14.216Z,97
2017-07-24T00:56:16.287Z,97
2017-07-24T00:57:18.668Z,97
2017-07-24T00:58:21.377Z,97
2017-07-24T00:59:23.425Z,97
2017-07-24T01:00:25.834Z,97
2017-07-24T01:01:28.249Z,97
2017-07-24T01:02:30.650Z,97
2017-07-24T01:03:33.040Z,97
2017-07-24T01:04:35.084Z,97
2017-07-24T01:05:37.139Z,97
2017-07-24T01:06:39.862Z,97
2017-07-24T01:07:41.903Z,97
2017-07-24T01:08:43.959Z,97
2017-07-24T01:09:46.349Z,97
2017-07-24T01:10:48.390Z,97
2017-07-24T01:11:51.126Z,97
2017-07-24T01:12:53.173Z,97
2017-07-24T01:13:55.224Z,97
2017-07-24T01:14:57.263Z,97
2017-07-24T01:15:59.310Z,97
2017-07-24T01:17:02.051Z,97
2017-07-24T01:18:04.134Z,97
2017-07-24T01:19:06.179Z,97
2017-07-24T01:20:08.231Z,97
2017-07-24T01:21:10.283Z,97
2017-07-24T01:22:12.671Z,97
2017-07-24T01:23:14.724Z,97
2017-07-24T01:24:17.113Z,97
2017-07-24T01:25:19.162Z,97
2017-07-24T01:26:21.214Z,97
2017-07-24T01:27:23.278Z,97
2017-07-24T01:28:25.332Z,97
2017-07-24T01:29:27.379Z,97
2017-07-24T01:30:29.423Z,97
2017-07-24T01:31:31.484Z,97
2017-07-24T01:32:33.525Z,97
2017-07-24T01:33:35.909Z,97
2017-07-24T01:34:37.961Z,97
2017-07-24T01:35:39.998Z,97
2017-07-24T01:36:42.728Z,97
2017-07-24T01:37:45.451Z,97
2017-07-24T01:38:47.829Z,97
2017-07-24T01:39:49.891Z,97
2017-07-24T01:40:51.965Z,97
2017-07-24T01:41:54.008Z,97
2017-07-24T01:42:56.047Z,97
2017-07-24T01:43:58.106Z,97
2017-07-24T01:45:00.154Z,97
2017-07-24T01:46:02.877Z,97
2017-07-24T01:47:05.603Z,97
2017-07-24T01:48:07.632Z,97
2017-07-24T01:49:10.032Z,97
2017-07-24T01:50:12.070Z,97
2017-07-24T01:51:14.119Z,97
2017-07-24T01:52:16.169Z,97
2017-07-24T01:53:18.219Z,97
2017-07-24T01:54:20.271Z,97
2017-07-24T01:55:22.314Z,97
2017-07-24T01:56:24.371Z,97
2017-07-24T01:57:26.462Z,97
2017-07-24T01:58:28.837Z,97
2017-07-24T01:59:31.242Z,97
2017-07-24T02:00:33.289Z,97
2017-07-24T02:01:35.346Z,97
2017-07-24T02:02:37.723Z,97
2017-07-24T02:03:39.776Z,97
2017-07-24T02:04:42.169Z,97
2017-07-24T02:05:44.553Z,97
2017-07-24T02:06:46.581Z,97
2017-07-24T02:07:48.626Z,97
2017-07-24T02:08:50.676Z,97
2017-07-24T02:09:53.053Z,97
2017-07-24T02:10:55.108Z,97
2017-07-24T02:11:57.532Z,97
2017-07-24T02:12:59.567Z,97
2017-07-24T02:14:01.616Z,97
2017-07-24T02:15:04.350Z,97
2017-07-24T02:16:07.071Z,97
2017-07-24T02:17:09.118Z,97
2017-07-24T02:18:11.508Z,97
2017-07-24T02:19:14.218Z,97
2017-07-24T02:20:16.264Z,97
2017-07-24T02:21:18.328Z,97
2017-07-24T02:22:20.381Z,97
2017-07-24T02:23:22.749Z,97
2017-07-24T02:24:25.138Z,97
2017-07-24T02:25:27.544Z,97
2017-07-24T02:26:29.608Z,97
2017-07-24T02:27:31.994Z,97
2017-07-24T02:28:34.039Z,97
2017-07-24T02:29:36.092Z,97
2017-07-24T02:30:38.134Z,97
2017-07-24T02:31:40.534Z,97
2017-07-24T02:32:42.927Z,97
2017-07-24T02:33:44.966Z,97
2017-07-24T02:34:47.011Z,97
2017-07-24T02:35:49.073Z,97
2017-07-24T02:36:51.131Z,97
2017-07-24T02:37:53.499Z,97
2017-07-24T02:38:55.900Z,97
2017-07-24T02:39:57.952Z,97
2017-07-24T02:41:00.342Z,97
2017-07-24T02:42:02.733Z,97
2017-07-24T02:43:05.821Z,97
2017-07-24T02:44:08.548Z,97
2017-07-24T02:45:10.981Z,97
2017-07-24T02:46:13.361Z,97
2017-07-24T02:47:15.419Z,97
2017-07-24T02:48:17.805Z,97
2017-07-24T02:49:19.848Z,97
2017-07-24T02:50:22.257Z,97
2017-07-24T02:51:24.656Z,97
2017-07-24T02:52:26.716Z,97
2017-07-24T02:53:28.758Z,97
2017-07-24T02:54:30.792Z,97
2017-07-24T02:55:33.532Z,97
2017-07-24T02:56:36.261Z,97
2017-07-24T02:57:38.314Z,97
2017-07-24T02:58:40.702Z,97
2017-07-24T02:59:42.744Z,97
2017-07-24T03:00:45.146Z,97
2017-07-24T03:01:47.196Z,97
2017-07-24T03:02:49.247Z,97
2017-07-24T03:03:51.958Z,97
2017-07-24T03:04:54.008Z,97
2017-07-24T03:05:56.733Z,97
2017-07-24T03:06:58.782Z,97
2017-07-24T03:08:00.826Z,97
2017-07-24T03:09:02.878Z,97
2017-07-24T03:10:04.923Z,97
2017-07-24T03:11:06.958Z,97
2017-07-24T03:12:09.017Z,97
2017-07-24T03:13:11.430Z,97
2017-07-24T03:14:13.477Z,97
2017-07-24T03:15:15.858Z,97
2017-07-24T03:16:18.245Z,97
2017-07-24T03:17:20.306Z,97
2017-07-24T03:18:22.343Z,97
2017-07-24T03:19:25.078Z,97
2017-07-24T03:20:27.463Z,97
2017-07-24T03:21:29.513Z,97
2017-07-24T03:22:31.571Z,97
2017-07-24T03:23:33.612Z,97
2017-07-24T03:24:35.667Z,97
2017-07-24T03:25:37.720Z,97
2017-07-24T03:26:39.757Z,97
2017-07-24T03:27:42.167Z,97
2017-07-24T03:28:44.206Z,97
2017-07-24T03:29:46.589Z,97
2017-07-24T03:30:48.665Z,97
2017-07-24T03:31:50.719Z,97
2017-07-24T03:32:53.111Z,97
2017-07-24T03:33:55.156Z,97
2017-07-24T03:34:57.194Z,97
2017-07-24T03:35:59.273Z,97
2017-07-24T03:37:01.669Z,97
2017-07-24T03:38:03.714Z,97
2017-07-24T03:39:05.756Z,97
2017-07-24T03:40:08.175Z,97
2017-07-24T03:41:10.231Z,97
2017-07-24T03:42:12.280Z,97
2017-07-24T03:43:14.675Z,97
2017-07-24T03:44:16.737Z,97
2017-07-24T03:45:19.142Z,97
2017-07-24T03:46:21.175Z,97
2017-07-24T03:47:23.235Z,97
2017-07-24T03:48:25.299Z,97
2017-07-24T03:49:27.341Z,97
2017-07-24T03:50:30.080Z,97
2017-07-24T03:51:32.134Z,97
2017-07-24T03:52:34.192Z,97
2017-07-24T03:53:36.244Z,97
2017-07-24T03:54:38.297Z,97
2017-07-24T03:55:40.337Z,97
2017-07-24T03:56:42.728Z,97
2017-07-24T03:57:44.775Z,97
2017-07-24T03:58:47.148Z,97
2017-07-24T03:59:49.547Z,97
2017-07-24T04:00:52.277Z,97
2017-07-24T04:01:55.025Z,97
2017-07-24T04:02:57.419Z,97
2017-07-24T04:03:59.812Z,97
2017-07-24T04:05:02.198Z,97
2017-07-24T04:06:04.584Z,97
2017-07-24T04:07:06.985Z,97
2017-07-24T04:08:09.050Z,97
2017-07-24T04:09:11.444Z,97
2017-07-24T04:10:13.490Z,97
2017-07-24T04:11:15.878Z,97
2017-07-24T04:12:17.956Z,97
2017-07-24T04:13:20.350Z,97
2017-07-24T04:14:22.744Z,97
2017-07-24T04:15:24.812Z,97
2017-07-24T04:16:26.856Z,97
2017-07-24T04:17:28.906Z,97
2017-07-24T04:18:30.962Z,97
2017-07-24T04:19:33.353Z,97
2017-07-24T04:20:35.752Z,97
2017-07-24T04:21:37.800Z,97
2017-07-24T04:22:39.877Z,97
2017-07-24T04:23:42.282Z,97
2017-07-24T04:24:44.339Z,97
2017-07-24T04:25:47.408Z,97
2017-07-24T04:26:49.799Z,97
2017-07-24T04:27:51.854Z,97
2017-07-24T04:28:53.910Z,96
2017-07-24T04:29:56.309Z,96
2017-07-24T04:30:59.027Z,96
2017-07-24T04:32:01.086Z,96
2017-07-24T04:33:03.144Z,96
2017-07-24T04:34:05.514Z,96
2017-07-24T04:35:08.247Z,96
2017-07-24T04:36:10.290Z,96
2017-07-24T04:37:13.017Z,96
2017-07-24T04:38:15.425Z,96
2017-07-24T04:39:17.824Z,96
2017-07-24T04:40:19.883Z,96
2017-07-24T04:41:21.923Z,96
2017-07-24T04:42:23.976Z,96
2017-07-24T04:43:26.073Z,96
2017-07-24T04:44:28.457Z,96
2017-07-24T04:45:30.838Z,96
2017-07-24T04:46:32.888Z,96
2017-07-24T04:47:34.931Z,96
2017-07-24T04:48:37.681Z,96
2017-07-24T04:49:39.721Z,96
2017-07-24T04:50:41.775Z,97
2017-07-24T04:51:44.169Z,97
2017-07-24T04:52:46.545Z,97
2017-07-24T04:53:48.612Z,97
2017-07-24T04:54:50.665Z,97
2017-07-24T04:55:52.715Z,97
2017-07-24T04:56:54.769Z,97
2017-07-24T04:57:56.839Z,97
2017-07-24T04:58:59.569Z,97
2017-07-24T05:00:01.631Z,97
2017-07-24T05:01:04.009Z,97
2017-07-24T05:02:06.076Z,97
2017-07-24T05:03:08.694Z,97
2017-07-24T05:04:11.104Z,97
2017-07-24T05:05:13.779Z,97
2017-07-24T05:06:15.920Z,97
2017-07-24T05:07:18.785Z,97
2017-07-24T05:08:21.175Z,97
2017-07-24T05:09:23.236Z,97
2017-07-24T05:10:26.153Z,97
2017-07-24T05:11:31.115Z,97
2017-07-24T05:12:34.370Z,97
2017-07-24T05:13:37.771Z,97
2017-07-24T05:14:41.291Z,97
2017-07-24T05:15:43.353Z,97
2017-07-24T05:16:45.408Z,97
2017-07-24T05:17:47.459Z,97
2017-07-24T05:18:49.522Z,97
2017-07-24T05:19:51.903Z,97
2017-07-24T05:20:53.945Z,97
2017-07-24T05:21:56.021Z,97
2017-07-24T05:22:58.077Z,97
2017-07-24T05:24:00.117Z,97
2017-07-24T05:25:02.530Z,97
2017-07-24T05:26:05.268Z,97
2017-07-24T05:27:07.334Z,96
2017-07-24T05:28:09.380Z,96
2017-07-24T05:29:11.791Z,96
2017-07-24T05:30:13.853Z,96
2017-07-24T05:31:15.913Z,96
2017-07-24T05:32:18.007Z,96
2017-07-24T05:33:20.395Z,95
2017-07-24T05:34:22.791Z,95
2017-07-24T05:35:24.850Z,95
2017-07-24T05:36:26.896Z,95
2017-07-24T05:37:28.950Z,95
2017-07-24T05:38:31.017Z,95
2017-07-24T05:39:33.070Z,94
2017-07-24T05:40:35.121Z,94
2017-07-24T05:41:37.165Z,94
2017-07-24T05:42:39.225Z,94
2017-07-24T05:43:41.272Z,94
2017-07-24T05:44:43.342Z,93
2017-07-24T05:45:45.404Z,93
2017-07-24T05:46:48.140Z,92
2017-07-24T05:47:50.863Z,92
2017-07-24T05:48:53.261Z,92
2017-07-24T05:49:55.317Z,92
2017-07-24T05:50:57.367Z,92
2017-07-24T05:52:04.658Z,92
2017-07-24T05:53:09.166Z,92
2017-07-24T05:54:11.217Z,92
2017-07-24T05:55:13.279Z,91
2017-07-24T05:56:15.336Z,91
2017-07-24T05:57:17.408Z,90
2017-07-24T05:58:19.455Z,90
2017-07-24T05:59:21.516Z,90
2017-07-24T06:00:23.930Z,90
2017-07-24T06:01:26.360Z,90
2017-07-24T06:02:28.521Z,90
2017-07-24T06:03:30.920Z,91
2017-07-24T06:04:33.295Z,91
2017-07-24T06:05:35.358Z,91
2017-07-24T06:06:37.426Z,91
2017-07-24T06:07:39.483Z,91
2017-07-24T06:08:41.539Z,91
2017-07-24T06:09:44.284Z,90
2017-07-24T06:10:46.680Z,90
2017-07-24T06:11:48.736Z,90
2017-07-24T06:12:50.794Z,89
2017-07-24T06:13:52.839Z,90
2017-07-24T06:14:55.261Z,89
2017-07-24T06:15:57.661Z,90
2017-07-24T06:16:59.719Z,90
2017-07-24T06:18:02.114Z,90
2017-07-24T06:19:04.518Z,89
2017-07-24T06:20:06.573Z,88
2017-07-24T06:21:08.629Z,88
2017-07-24T06:22:10.688Z,88
2017-07-24T06:23:13.764Z,88
2017-07-24T06:24:15.808Z,89
2017-07-24T06:25:18.208Z,89
2017-07-24T06:26:20.270Z,88
2017-07-24T06:27:22.324Z,90
2017-07-24T06:28:24.369Z,88
2017-07-24T06:29:26.772Z,88
2017-07-24T06:30:28.826Z,90
2017-07-24T06:31:30.892Z,89
2017-07-24T06:32:32.942Z,90
2017-07-24T06:33:35.353Z,90
2017-07-24T06:34:37.750Z,89
2017-07-24T06:35:40.135Z,90
2017-07-24T06:36:42.205Z,90
2017-07-24T06:37:44.618Z,90
2017-07-24T06:38:47.000Z,90
2017-07-24T06:39:49.060Z,90
2017-07-24T06:40:51.115Z,88
2017-07-24T06:41:53.201Z,85
2017-07-24T06:42:55.264Z,87
2017-07-24T06:43:57.345Z,86
2017-07-24T06:44:59.395Z,85
2017-07-24T06:46:01.461Z,86
2017-07-24T06:47:03.534Z,87
2017-07-24T06:48:06.279Z,87
2017-07-24T06:49:08.320Z,84
2017-07-24T06:50:10.382Z,85
2017-07-24T06:51:12.455Z,84
2017-07-24T06:52:14.507Z,83
2017-07-24T06:53:16.558Z,84
2017-07-24T06:54:18.625Z,83
2017-07-24T06:55:21.019Z,82
2017-07-24T06:56:23.413Z,83
2017-07-24T06:57:25.501Z,83
2017-07-24T06:58:27.924Z,84
2017-07-24T06:59:29.981Z,84
2017-07-24T07:00:32.043Z,84
2017-07-24T07:01:34.092Z,84
2017-07-24T07:02:36.153Z,85
2017-07-24T07:03:38.223Z,86
2017-07-24T07:04:40.619Z,88
2017-07-24T07:05:42.681Z,86
2017-07-24T07:06:45.086Z,87
2017-07-24T07:07:47.142Z,86
2017-07-24T07:08:49.203Z,88
2017-07-24T07:09:51.592Z,86
2017-07-24T07:10:53.654Z,85
2017-07-24T07:11:56.056Z,83
2017-07-24T07:12:58.454Z,83
2017-07-24T07:14:00.523Z,83
2017-07-24T07:15:02.919Z,83
2017-07-24T07:16:04.975Z,83
2017-07-24T07:17:07.027Z,85
2017-07-24T07:18:09.093Z,83
2017-07-24T07:19:11.499Z,83
2017-07-24T07:20:14.233Z,81
2017-07-24T07:21:16.289Z,81
2017-07-24T07:22:18.345Z,84
2017-07-24T07:23:20.403Z,86
2017-07-24T07:24:22.463Z,84
2017-07-24T07:25:24.524Z,84
2017-07-24T07:26:26.596Z,80
2017-07-24T07:27:28.659Z,80
2017-07-24T07:28:31.062Z,80
2017-07-24T07:29:33.120Z,80
2017-07-24T07:30:35.187Z,80
2017-07-24T07:31:37.594Z,80
2017-07-24T07:32:40.002Z,81
2017-07-24T07:33:42.409Z,83
2017-07-24T07:34:44.476Z,80
2017-07-24T07:35:46.521Z,77
2017-07-24T07:36:48.581Z,77
2017-07-24T07:37:50.638Z,79
2017-07-24T07:38:52.707Z,78
2017-07-24T07:39:54.773Z,79
2017-07-24T07:40:57.204Z,78
2017-07-24T07:41:59.266Z,77
2017-07-24T07:43:01.332Z,80
2017-07-24T07:44:03.723Z,79
2017-07-24T07:45:06.467Z,81
2017-07-24T07:46:08.862Z,82
2017-07-24T07:47:11.644Z,80
2017-07-24T07:48:14.404Z,78
2017-07-24T07:49:16.799Z,80
2017-07-24T07:50:18.856Z,77
2017-07-24T07:51:20.919Z,76
2017-07-24T07:52:23.313Z,75
2017-07-24T07:53:25.383Z,76
2017-07-24T07:54:27.441Z,76
2017-07-24T07:55:29.502Z,78
2017-07-24T07:56:31.562Z,83
2017-07-24T07:57:33.623Z,84
2017-07-24T07:58:35.675Z,82
2017-07-24T07:59:37.744Z,81
2017-07-24T08:00:40.240Z,75
2017-07-24T08:01:42.346Z,76
2017-07-24T08:02:44.411Z,75
2017-07-24T08:03:46.802Z,76
2017-07-24T08:04:48.867Z,75
2017-07-24T08:05:50.942Z,74
2017-07-24T08:06:53.350Z,75
2017-07-24T08:07:56.084Z,75
2017-07-24T08:08:58.136Z,77
2017-07-24T08:10:00.205Z,75
2017-07-24T08:11:02.619Z,73
2017-07-24T08:12:04.677Z,73
2017-07-24T08:13:07.080Z,73
2017-07-24T08:14:09.476Z,73
2017-07-24T08:15:11.542Z,76
2017-07-24T08:16:13.949Z,73
2017-07-24T08:17:16.361Z,74
2017-07-24T08:18:18.771Z,72
2017-07-24T08:19:20.830Z,72
2017-07-24T08:20:22.896Z,71
2017-07-24T08:21:24.976Z,71
2017-07-24T08:22:27.374Z,71
2017-07-24T08:23:29.441Z,71
2017-07-24T08:24:31.509Z,70
2017-07-24T08:25:33.923Z,69
2017-07-24T08:26:36.337Z,72
2017-07-24T08:27:38.386Z,71
2017-07-24T08:28:40.462Z,73
2017-07-24T08:29:42.516Z,76
2017-07-24T08:30:44.572Z,76
2017-07-24T08:31:46.631Z,76
2017-07-24T08:32:48.690Z,75
2017-07-24T08:33:50.757Z,75
2017-07-24T08:34:53.149Z,78
2017-07-24T08:35:55.206Z,73
2017-07-24T08:36:57.265Z,68
2017-07-24T08:38:00.001Z,69
2017-07-24T08:39:02.064Z,71
2017-07-24T08:40:04.129Z,73
2017-07-24T08:41:06.191Z,72
2017-07-24T08:42:08.252Z,69
2017-07-24T08:43:10.330Z,69
2017-07-24T08:44:12.392Z,66
2017-07-24T08:45:14.453Z,67
2017-07-24T08:46:17.218Z,65
2017-07-24T08:47:19.284Z,66
2017-07-24T08:48:21.347Z,71
2017-07-24T08:49:23.748Z,73
2017-07-24T08:50:25.822Z,72
2017-07-24T08:51:27.883Z,71
2017-07-24T08:52:30.277Z,66
2017-07-24T08:53:33.022Z,67
2017-07-24T08:54:35.425Z,66
2017-07-24T08:55:37.831Z,70
2017-07-24T08:56:40.565Z,73
2017-07-24T08:57:42.971Z,66
2017-07-24T08:58:45.024Z,65
2017-07-24T08:59:47.075Z,68
2017-07-24T09:00:49.160Z,72
2017-07-24T09:01:51.233Z,64
2017-07-24T09:02:53.291Z,64
2017-07-24T09:03:55.365Z,66
2017-07-24T09:04:57.765Z,66
2017-07-24T09:06:00.184Z,69
2017-07-24T09:07:02.614Z,67
2017-07-24T09:08:05.011Z,63
2017-07-24T09:09:07.097Z,65
2017-07-24T09:10:09.160Z,65
2017-07-24T09:11:11.552Z,66
2017-07-24T09:12:13.953Z,68
2017-07-24T09:13:16.349Z,66
2017-07-24T09:14:18.746Z,70
2017-07-24T09:15:21.160Z,69
2017-07-24T09:16:23.213Z,70
2017-07-24T09:17:25.287Z,72
2017-07-24T09:18:27.340Z,73
2017-07-24T09:19:29.753Z,69
2017-07-24T09:20:31.815Z,69
2017-07-24T09:21:33.890Z,66
2017-07-24T09:22:35.946Z,67
2017-07-24T09:23:38.048Z,65
2017-07-24T09:24:40.100Z,65
2017-07-24T09:25:42.185Z,65
2017-07-24T09:26:44.256Z,63
2017-07-24T09:27:46.660Z,65
2017-07-24T09:28:48.730Z,63
2017-07-24T09:29:50.791Z,62
2017-07-24T09:30:52.888Z,58
2017-07-24T09:31:55.670Z,59
2017-07-24T09:32:58.057Z,58
2017-07-24T09:34:00.163Z,58
2017-07-24T09:35:02.600Z,59
2017-07-24T09:36:05.011Z,62
2017-07-24T09:37:07.409Z,63
2017-07-24T09:38:09.818Z,62
2017-07-24T09:39:12.572Z,62
2017-07-24T09:40:14.637Z,63
2017-07-24T09:41:17.047Z,63
2017-07-24T09:42:19.118Z,64
2017-07-24T09:43:21.518Z,64
2017-07-24T09:44:23.588Z,62
2017-07-24T09:45:25.654Z,61
2017-07-24T09:46:27.712Z,63
2017-07-24T09:47:29.790Z,63
2017-07-24T09:48:32.202Z,63
2017-07-24T09:49:34.625Z,62
2017-07-24T09:50:36.701Z,64
2017-07-24T09:51:38.753Z,62
2017-07-24T09:52:40.827Z,62
2017-07-24T09:53:43.243Z,61
2017-07-24T09:54:45.308Z,62
2017-07-24T09:55:47.368Z,62
2017-07-24T09:56:49.449Z,61
2017-07-24T09:57:51.525Z,63
2017-07-24T09:58:53.963Z,60
2017-07-24T09:59:56.369Z,60
2017-07-24T10:00:58.466Z,61
2017-07-24T10:02:00.539Z,61
2017-07-24T10:03:02.603Z,60
2017-07-24T10:04:05.022Z,60
2017-07-24T10:05:07.488Z,61
2017-07-24T10:06:09.552Z,62
2017-07-24T10:07:11.628Z,60
2017-07-24T10:08:14.387Z,58
2017-07-24T10:09:16.466Z,60
2017-07-24T10:10:18.552Z,58
2017-07-24T10:11:20.620Z,59
2017-07-24T10:12:23.038Z,59
2017-07-24T10:13:25.100Z,58
2017-07-24T10:14:27.166Z,57
2017-07-24T10:15:29.262Z,58
2017-07-24T10:16:31.691Z,61
2017-07-24T10:17:33.759Z,62
2017-07-24T10:18:36.535Z,58
2017-07-24T10:19:38.634Z,57
2017-07-24T10:20:40.710Z,57
2017-07-24T10:21:42.789Z,55
2017-07-24T10:22:44.878Z,57
2017-07-24T10:23:46.947Z,60
2017-07-24T10:24:49.006Z,59
2017-07-24T10:25:51.417Z,58
2017-07-24T10:26:53.489Z,60
2017-07-24T10:27:55.951Z,59
2017-07-24T10:28:58.369Z,60
2017-07-24T10:30:00.782Z,61
2017-07-24T10:31:03.202Z,63
2017-07-24T10:32:05.280Z,61
2017-07-24T10:33:07.362Z,62
2017-07-24T10:34:09.768Z,64
2017-07-24T10:35:11.841Z,65
2017-07-24T10:36:14.263Z,65
2017-07-24T10:37:16.350Z,64
2017-07-24T10:38:18.420Z,62
2017-07-24T10:39:20.482Z,61
2017-07-24T10:40:22.569Z,60
2017-07-24T10:41:24.642Z,60
2017-07-24T10:42:27.070Z,61
2017-07-24T10:43:29.149Z,59
2017-07-24T10:44:31.937Z,57
2017-07-24T10:45:34.345Z,58
2017-07-24T10:46:36.416Z,57
2017-07-24T10:47:38.482Z,58
2017-07-24T10:48:40.560Z,56
2017-07-24T10:49:42.628Z,55
2017-07-24T10:50:44.708Z,55
2017-07-24T10:51:47.459Z,54
2017-07-24T10:52:49.531Z,56
2017-07-24T10:53:51.609Z,55
2017-07-24T10:54:54.026Z,55
2017-07-24T10:55:56.791Z,55
2017-07-24T10:56:59.207Z,56
2017-07-24T10:58:01.275Z,54
2017-07-24T10:59:03.351Z,54
2017-07-24T11:00:05.777Z,56
2017-07-24T11:01:07.861Z,55
2017-07-24T11:02:10.632Z,54
2017-07-24T11:03:12.718Z,55
2017-07-24T11:04:15.132Z,54
2017-07-24T11:05:17.549Z,54
2017-07-24T11:06:19.966Z,54
2017-07-24T11:07:22.737Z,54
2017-07-24T11:08:25.146Z,52
2017-07-24T11:09:27.226Z,52
2017-07-24T11:10:29.635Z,51
2017-07-24T11:11:31.724Z,50
2017-07-24T11:12:33.814Z,51
2017-07-24T11:13:36.261Z,51
2017-07-24T11:14:38.670Z,52
2017-07-24T11:15:40.746Z,51
2017-07-24T11:16:42.817Z,53
2017-07-24T11:17:44.917Z,53
2017-07-24T11:18:46.981Z,52
2017-07-24T11:19:49.138Z,52
2017-07-24T11:20:51.213Z,53
2017-07-24T11:21:53.287Z,54
2017-07-24T11:22:55.358Z,55
2017-07-24T11:23:57.426Z,53
2017-07-24T11:24:59.509Z,53
2017-07-24T11:26:01.600Z,52
2017-07-24T11:27:03.659Z,53
2017-07-24T11:28:06.080Z,54
2017-07-24T11:29:08.486Z,55
2017-07-24T11:30:10.903Z,56
2017-07-24T11:31:12.996Z,58
2017-07-24T11:32:15.069Z,59
2017-07-24T11:33:17.138Z,60
2017-07-24T11:34:19.552Z,61
2017-07-24T11:35:21.610Z,60
2017-07-24T11:36:23.687Z,63
2017-07-24T11:37:25.744Z,63
2017-07-24T11:38:27.825Z,63
2017-07-24T11:39:29.888Z,64
2017-07-24T11:40:31.963Z,63
2017-07-24T11:41:34.029Z,64
2017-07-24T11:42:36.101Z,66
2017-07-24T11:43:38.174Z,63
2017-07-24T11:44:40.258Z,64
2017-07-24T11:45:42.316Z,63
2017-07-24T11:46:44.398Z,63
2017-07-24T11:47:46.836Z,65
2017-07-24T11:48:48.931Z,62
2017-07-24T11:49:51.005Z,65
2017-07-24T11:50:53.066Z,62
2017-07-24T11:51:55.126Z,61
2017-07-24T11:52:57.229Z,60
2017-07-24T11:53:59.294Z,61
2017-07-24T11:55:01.353Z,62
2017-07-24T11:56:03.765Z,62
2017-07-24T11:57:05.887Z,60
2017-07-24T11:58:07.955Z,60
2017-07-24T11:59:10.023Z,60
2017-07-24T12:00:12.792Z,61
2017-07-24T12:01:14.856Z,62
2017-07-24T12:02:16.903Z,61
2017-07-24T12:03:19.315Z,60
2017-07-24T12:04:21.388Z,57
2017-07-24T12:05:23.464Z,56
2017-07-24T12:06:25.540Z,57
2017-07-24T12:07:27.954Z,56
2017-07-24T12:08:30.028Z,55
2017-07-24T12:09:32.435Z,53
2017-07-24T12:10:34.834Z,53
2017-07-24T12:11:36.916Z,51
2017-07-24T12:12:38.977Z,51
2017-07-24T12:13:41.037Z,52
2017-07-24T12:14:43.101Z,51
2017-07-24T12:15:45.515Z,52
2017-07-24T12:16:47.605Z,52
2017-07-24T12:17:50.369Z,50
2017-07-24T12:18:52.796Z,52
2017-07-24T12:19:54.881Z,54
2017-07-24T12:20:56.947Z,52
2017-07-24T12:21:59.034Z,53
2017-07-24T12:23:01.112Z,49
2017-07-24T12:24:03.532Z,53
2017-07-24T12:25:05.596Z,55
2017-07-24T12:26:08.037Z,52
2017-07-24T12:27:10.123Z,53
2017-07-24T12:28:12.170Z,56
2017-07-24T12:29:14.255Z,54
2017-07-24T12:30:16.347Z,56
2017-07-24T12:31:18.418Z,57
2017-07-24T12:32:20.484Z,55
2017-07-24T12:33:22.561Z,54
2017-07-24T12:34:24.627Z,58
2017-07-24T12:35:27.025Z,60
2017-07-24T12:36:29.097Z,58
2017-07-24T12:37:31.184Z,57
2017-07-24T12:38:33.608Z,54
2017-07-24T12:39:35.678Z,56
2017-07-24T12:40:37.756Z,59
2017-07-24T12:41:39.836Z,58
2017-07-24T12:42:41.907Z,58
2017-07-24T12:43:43.970Z,57
2017-07-24T12:44:46.045Z,57
2017-07-24T12:45:48.521Z,58
2017-07-24T12:46:50.935Z,58
2017-07-24T12:47:53.011Z,59
2017-07-24T12:48:55.417Z,60
2017-07-24T12:49:57.522Z,62
2017-07-24T12:50:59.583Z,64
2017-07-24T12:52:01.671Z,64
2017-07-24T12:53:03.742Z,64
2017-07-24T12:54:06.166Z,64
2017-07-24T12:55:33.940Z,64
2017-07-24T12:56:36.382Z,65
2017-07-24T12:57:38.840Z,65
2017-07-24T12:58:40.954Z,65
2017-07-24T12:59:43.406Z,64
2017-07-24T13:00:45.542Z,67
2017-07-24T13:01:47.669Z,68
2017-07-24T13:02:49.787Z,69
2017-07-24T13:03:52.235Z,70
2017-07-24T13:04:54.343Z,70
2017-07-24T13:05:56.811Z,69
2017-07-24T13:06:58.932Z,69
2017-07-24T13:08:01.036Z,70
2017-07-24T13:09:03.835Z,71
2017-07-24T13:10:06.281Z,71
2017-07-24T13:11:08.426Z,69
2017-07-24T13:12:10.537Z,71
2017-07-24T13:13:12.645Z,72
2017-07-24T13:14:14.757Z,71
2017-07-24T13:15:16.868Z,71
2017-07-24T13:16:19.305Z,71
2017-07-24T13:17:21.779Z,72
2017-07-24T13:18:23.882Z,72
2017-07-24T13:19:25.999Z,73
2017-07-24T13:20:28.796Z,72
2017-07-24T13:21:30.897Z,72
2017-07-24T13:22:33.356Z,73
2017-07-24T13:23:35.813Z,73
2017-07-24T13:24:37.928Z,71
2017-07-24T13:25:40.399Z,71
2017-07-24T13:26:42.503Z,72
2017-07-24T13:27:44.606Z,71
2017-07-24T13:28:46.713Z,71
2017-07-24T13:29:48.830Z,70
2017-07-24T13:30:50.949Z,70
2017-07-24T13:31:53.055Z,72
2017-07-24T13:32:55.165Z,72
2017-07-24T13:33:57.621Z,71
2017-07-24T13:35:00.052Z,72
2017-07-24T13:36:02.513Z,72
2017-07-24T13:37:04.617Z,74
2017-07-24T13:38:07.079Z,71
2017-07-24T13:39:09.185Z,72
2017-07-24T13:40:11.283Z,72
2017-07-24T13:41:14.090Z,70
2017-07-24T13:42:16.230Z,72
2017-07-24T13:43:18.673Z,70
2017-07-24T13:44:20.845Z,70
2017-07-24T13:45:22.968Z,70
2017-07-24T13:46:25.077Z,69
2017-07-24T13:47:27.194Z,65
2017-07-24T13:48:29.324Z,66
2017-07-24T13:49:31.623Z,70
2017-07-24T13:50:34.100Z,71
2017-07-24T13:51:36.898Z,71
2017-07-24T13:52:39.359Z,73
2017-07-24T13:53:41.464Z,71
2017-07-24T13:54:44.281Z,72
2017-07-24T13:55:46.730Z,73
2017-07-24T13:56:49.190Z,72
2017-07-24T13:57:52.018Z,72
2017-07-24T13:58:54.478Z,73
2017-07-24T13:59:56.560Z,73
2017-07-24T14:00:58.694Z,74
2017-07-24T14:02:01.144Z,74
2017-07-24T14:03:03.602Z,73
2017-07-24T14:04:06.059Z,74
2017-07-24T14:05:08.158Z,75
2017-07-24T14:06:10.273Z,75
2017-07-24T14:07:12.735Z,76
2017-07-24T14:08:14.832Z,75
2017-07-24T14:09:17.295Z,74
2017-07-24T14:10:19.406Z,75
2017-07-24T14:11:21.530Z,75
2017-07-24T14:12:23.983Z,74
2017-07-24T14:13:26.433Z,74
2017-07-24T14:14:28.546Z,75
2017-07-24T14:15:30.644Z,73
2017-07-24T14:16:33.108Z,74
2017-07-24T14:17:35.568Z,71
2017-07-24T14:18:37.674Z,73
2017-07-24T14:19:39.777Z,73
2017-07-24T14:20:42.227Z,73
2017-07-24T14:21:44.673Z,73
2017-07-24T14:22:47.140Z,72
2017-07-24T14:23:49.250Z,73
2017-07-24T14:24:51.353Z,73
2017-07-24T14:25:53.461Z,73
2017-07-24T14:26:55.580Z,74
2017-07-24T14:27:58.024Z,74
2017-07-24T14:29:00.472Z,73
2017-07-24T14:30:02.930Z,72
2017-07-24T14:31:05.045Z,73
2017-07-24T14:32:07.138Z,74
2017-07-24T14:33:09.593Z,73
2017-07-24T14:34:11.717Z,75
2017-07-24T14:35:13.839Z,74
2017-07-24T14:36:16.290Z,73
2017-07-24T14:37:18.732Z,75
2017-07-24T14:38:21.465Z,74
2017-07-24T14:39:23.804Z,73
2017-07-24T14:40:25.902Z,75
2017-07-24T14:41:28.036Z,75
2017-07-24T14:42:30.132Z,75
2017-07-24T14:43:32.576Z,75
2017-07-24T14:44:34.690Z,76
2017-07-24T14:45:37.369Z,75
2017-07-24T14:46:39.469Z,76
2017-07-24T14:47:41.907Z,75